Time;durP1;ratioP1;P1;durP2;ratioP2;P2;SDS_P1;SDS_P2;PMS_P1;PMS_P2;Temp;Humidity;BMP_temperature;BMP_pressure;BME280_temperature;BME280_humidity;BME280_pressure;Samples;Min_cycle;Max_cycle;Signal;HPM_P1;HPM_P2
2022/02/03 00:00:32;;;;;;;69.90;10.13;;;;;;;;;;5073539;28;20283;-70
2022/02/03 00:03:07;;;;;;;72.72;11.35;;;;;;;;;;5073334;28;20299;-71
2022/02/03 00:05:44;;;;;;;72.50;13.27;;;;;;;;;;5073696;28;20212;-71
2022/02/03 00:08:18;;;;;;;68.43;10.63;;;;;;;;;;5073298;28;20211;-71
2022/02/03 00:11:03;;;;;;;70.05;11.00;;;;;;;;;;5071088;28;20241;-71
2022/02/03 00:16:41;;;;;;;68.13;10.82;;;;;;;;;;5073382;28;20259;-70
2022/02/03 00:24:51;;;;;;;78.18;14.13;;;;;;;;;;5091277;28;20218;-69
2022/02/03 00:27:24;;;;;;;70.53;11.00;;;;;;;;;;5094855;28;20193;-69
2022/02/03 00:29:58;;;;;;;71.75;11.73;;;;;;;;;;5093533;28;20233;-69
2022/02/03 00:35:40;;;;;;;72.47;11.67;;;;;;;;;;5094123;28;20201;-69
2022/02/03 00:38:23;;;;;;;68.90;10.20;;;;;;;;;;5077817;28;20475;-69
2022/02/03 00:49:09;;;;;;;70.80;11.77;;;;;;;;;;5072481;28;20212;-69
2022/02/03 00:51:42;;;;;;;68.13;11.23;;;;;;;;;;5072787;28;20310;-69
2022/02/03 00:54:10;;;;;;;74.30;11.98;;;;;;;;;;5072571;28;20236;-69
2022/02/03 00:56:38;;;;;;;67.70;10.90;;;;;;;;;;5072568;28;20236;-69
2022/02/03 00:59:08;;;;;;;67.82;10.77;;;;;;;;;;5072047;28;20458;-69
2022/02/03 01:01:37;;;;;;;67.20;11.63;;;;;;;;;;5072343;28;20253;-69
2022/02/03 01:04:06;;;;;;;69.03;10.73;;;;;;;;;;5072397;28;20317;-69
2022/02/03 01:06:34;;;;;;;71.40;10.93;;;;;;;;;;5072533;28;20556;-69
2022/02/03 01:09:06;;;;;;;69.35;11.48;;;;;;;;;;5071703;28;20212;-69
2022/02/03 01:11:37;;;;;;;70.60;11.23;;;;;;;;;;5072424;28;20202;-69
2022/02/03 01:14:09;;;;;;;69.97;11.15;;;;;;;;;;5070085;28;20587;-69
2022/02/03 01:16:53;;;;;;;68.40;10.32;;;;;;;;;;5072134;28;20205;-69
2022/02/03 01:19:44;;;;;;;68.00;11.53;;;;;;;;;;5072060;28;20205;-69
2022/02/03 01:33:46;;;;;;;70.25;11.20;;;;;;;;;;5071839;28;20709;-69
2022/02/03 01:44:49;;;;;;;72.47;11.40;;;;;;;;;;5071658;28;20630;-69
2022/02/03 01:47:33;;;;;;;69.23;12.00;;;;;;;;;;5071079;28;20572;-69
2022/02/03 01:52:47;;;;;;;69.97;10.88;;;;;;;;;;5071661;28;20244;-70
2022/02/03 01:55:15;;;;;;;69.75;11.05;;;;;;;;;;5071693;28;20216;-69
2022/02/03 01:57:49;;;;;;;70.67;11.90;;;;;;;;;;5071312;28;20575;-69
2022/02/03 02:00:21;;;;;;;76.90;11.63;;;;;;;;;;5071938;28;20456;-69
2022/02/03 02:02:55;;;;;;;71.15;11.07;;;;;;;;;;5071608;28;20491;-69
2022/02/03 02:05:29;;;;;;;70.28;10.95;;;;;;;;;;5072145;28;20215;-68
2022/02/03 02:07:58;;;;;;;66.77;9.97;;;;;;;;;;5071148;28;20300;-69
2022/02/03 02:10:47;;;;;;;69.10;10.48;;;;;;;;;;5071759;28;20451;-70
2022/02/03 02:13:39;;;;;;;71.47;10.77;;;;;;;;;;5071864;28;20551;-70
2022/02/03 02:16:27;;;;;;;69.90;11.13;;;;;;;;;;5071342;28;20455;-70
2022/02/03 02:19:14;;;;;;;69.72;11.60;;;;;;;;;;5071496;28;20867;-68
2022/02/03 02:38:42;;;;;;;74.82;12.82;;;;;;;;;;5074975;28;20485;-68
2022/02/03 02:42:19;;;;;;;70.28;12.25;;;;;;;;;;5075291;28;20267;-68
2022/02/03 02:44:34;;;;;;;70.37;10.70;;;;;;;;;;5074887;28;20233;-68
2022/02/03 02:47:04;;;;;;;68.20;10.73;;;;;;;;;;5074651;28;20982;-68
2022/02/03 02:49:43;;;;;;;69.68;10.50;;;;;;;;;;5072574;28;20458;-68
2022/02/03 02:52:19;;;;;;;68.18;10.90;;;;;;;;;;5075015;28;20213;-69
2022/02/03 02:54:57;;;;;;;69.00;12.00;;;;;;;;;;5074855;28;20205;-69
2022/02/03 02:57:53;;;;;;;68.17;11.37;;;;;;;;;;5074223;28;20451;-69
2022/02/03 03:03:36;;;;;;;72.30;11.57;;;;;;;;;;5074703;28;20310;-69
2022/02/03 03:31:07;;;;;;;71.45;11.60;;;;;;;;;;5074330;28;20422;-70
2022/02/03 03:33:45;;;;;;;71.07;11.07;;;;;;;;;;5073560;28;20221;-70
2022/02/03 03:36:16;;;;;;;71.65;11.35;;;;;;;;;;5074383;28;20601;-70
2022/02/03 03:38:47;;;;;;;71.28;11.52;;;;;;;;;;5074035;28;20586;-70
2022/02/03 03:41:17;;;;;;;68.72;10.50;;;;;;;;;;5073980;28;20224;-69
2022/02/03 03:43:45;;;;;;;68.77;12.10;;;;;;;;;;5073974;28;20233;-69
2022/02/03 03:46:13;;;;;;;70.80;12.07;;;;;;;;;;5074172;28;20811;-69
2022/02/03 03:48:48;;;;;;;68.80;11.00;;;;;;;;;;5073615;28;20444;-69
2022/02/03 03:51:17;;;;;;;71.43;12.38;;;;;;;;;;5073711;28;20465;-69
2022/02/03 03:53:57;;;;;;;73.75;10.75;;;;;;;;;;5071928;28;20579;-69
2022/02/03 03:56:34;;;;;;;69.90;12.30;;;;;;;;;;5074000;28;20212;-69
2022/02/03 03:59:24;;;;;;;72.68;10.75;;;;;;;;;;5073621;28;20458;-69
2022/02/03 04:33:56;;;;;;;68.27;10.10;;;;;;;;;;5037152;28;20449;-69
2022/02/03 04:42:28;;;;;;;68.00;10.20;;;;;;;;;;5052663;28;20441;-69
2022/02/03 04:45:25;;;;;;;68.43;11.43;;;;;;;;;;5051841;28;20452;-69
2022/02/03 05:00:44;;;;;;;66.90;10.60;;;;;;;;;;5089202;27;21106;-70
2022/02/03 05:03:36;;;;;;;69.40;10.70;;;;;;;;;;5089234;28;20474;-69
2022/02/03 05:06:12;;;;;;;69.87;9.90;;;;;;;;;;5089257;28;20524;-70
2022/02/03 05:08:55;;;;;;;67.72;10.48;;;;;;;;;;5088825;28;20491;-70
2022/02/03 05:11:46;;;;;;;67.43;9.70;;;;;;;;;;5089348;28;20255;-69
2022/02/03 05:14:57;;;;;;;68.67;10.53;;;;;;;;;;5088943;28;20814;-69
2022/02/03 05:17:53;;;;;;;66.70;10.70;;;;;;;;;;5088868;28;20451;-69
2022/02/03 05:20:40;;;;;;;68.95;10.60;;;;;;;;;;5088953;28;20958;-69
2022/02/03 05:26:30;;;;;;;66.17;9.97;;;;;;;;;;5082292;28;20830;-69
2022/02/03 05:46:35;;;;;;;68.90;10.93;;;;;;;;;;5109897;27;21195;-68
2022/02/03 05:49:29;;;;;;;66.60;10.47;;;;;;;;;;5109442;28;20450;-69
2022/02/03 05:52:18;;;;;;;71.70;12.30;;;;;;;;;;5109425;28;20449;-69
2022/02/03 06:05:56;;;;;;;71.95;12.40;;;;;;;;;;5108951;28;20478;-69
2022/02/03 06:08:29;;;;;;;73.57;14.20;;;;;;;;;;5109046;28;20573;-69
2022/02/03 06:13:47;;;;;;;68.68;10.75;;;;;;;;;;5108961;28;20219;-69
2022/02/03 06:21:50;;;;;;;75.85;14.80;;;;;;;;;;5109096;28;20669;-69
2022/02/03 06:24:30;;;;;;;78.93;16.17;;;;;;;;;;5108921;28;20305;-69
2022/02/03 06:29:49;;;;;;;87.53;22.13;;;;;;;;;;5101136;28;20303;-69
2022/02/03 06:32:16;;;;;;;79.88;19.00;;;;;;;;;;5088355;28;20205;-69
2022/02/03 06:34:45;;;;;;;76.32;16.05;;;;;;;;;;5088303;28;20780;-69
2022/02/03 06:37:12;;;;;;;73.47;14.05;;;;;;;;;;5088302;28;20585;-69
2022/02/03 06:39:39;;;;;;;76.30;14.82;;;;;;;;;;5088166;28;20208;-69
2022/02/03 06:42:08;;;;;;;80.93;17.53;;;;;;;;;;5088402;28;20215;-69
2022/02/03 06:44:39;;;;;;;81.45;19.13;;;;;;;;;;5087933;28;20486;-69
2022/02/03 06:47:12;;;;;;;82.50;19.70;;;;;;;;;;5088409;28;20213;-69
2022/02/03 06:49:49;;;;;;;77.25;16.75;;;;;;;;;;5088104;28;20212;-70
2022/02/03 06:52:22;;;;;;;80.05;18.27;;;;;;;;;;5088164;28;20339;-70
2022/02/03 06:55:02;;;;;;;79.25;18.05;;;;;;;;;;5087923;28;20251;-70
2022/02/03 06:57:35;;;;;;;76.10;17.00;;;;;;;;;;5075121;28;20209;-70
2022/02/03 07:00:06;;;;;;;75.68;16.38;;;;;;;;;;5074441;28;20202;-70
2022/02/03 07:02:39;;;;;;;74.68;14.35;;;;;;;;;;5073218;28;20209;-70
2022/02/03 07:05:06;;;;;;;71.33;12.57;;;;;;;;;;5074277;28;20237;-70
2022/02/03 07:07:39;;;;;;;77.10;14.73;;;;;;;;;;5074038;28;20467;-69
2022/02/03 07:10:07;;;;;;;71.90;13.55;;;;;;;;;;5074401;28;20487;-70
2022/02/03 07:12:34;;;;;;;71.85;11.65;;;;;;;;;;5074099;28;20216;-70
2022/02/03 07:15:04;;;;;;;73.63;12.77;;;;;;;;;;5074288;28;20292;-70
2022/02/03 07:17:31;;;;;;;73.65;14.23;;;;;;;;;;5073880;28;20452;-70
2022/02/03 07:20:02;;;;;;;69.70;12.25;;;;;;;;;;5074039;28;20217;-70
2022/02/03 07:22:29;;;;;;;72.47;12.80;;;;;;;;;;5074218;28;20206;-70
2022/02/03 07:24:57;;;;;;;74.53;12.82;;;;;;;;;;5074114;28;20830;-70
2022/02/03 07:27:25;;;;;;;70.33;13.20;;;;;;;;;;5073753;28;20208;-70
2022/02/03 07:29:53;;;;;;;80.90;15.70;;;;;;;;;;5074046;28;20455;-70
2022/02/03 07:32:21;;;;;;;95.50;22.30;;;;;;;;;;5073804;28;20448;-70
2022/02/03 07:34:50;;;;;;;77.40;17.50;;;;;;;;;;5090872;28;20550;-70
2022/02/03 07:37:18;;;;;;;78.63;16.83;;;;;;;;;;5093773;28;20485;-70
2022/02/03 07:39:46;;;;;;;80.47;18.50;;;;;;;;;;5094069;28;20451;-70
2022/02/03 07:42:15;;;;;;;74.07;15.13;;;;;;;;;;5093952;28;20988;-70
2022/02/03 07:44:42;;;;;;;75.80;15.50;;;;;;;;;;5093441;28;20574;-69
2022/02/03 07:47:09;;;;;;;76.47;17.43;;;;;;;;;;5093726;28;20474;-71
2022/02/03 07:49:36;;;;;;;76.43;16.37;;;;;;;;;;5094062;28;20530;-69
2022/02/03 07:52:03;;;;;;;78.17;15.77;;;;;;;;;;5094457;28;20447;-69
2022/02/03 07:54:31;;;;;;;74.60;15.63;;;;;;;;;;5093811;28;20463;-70
2022/02/03 07:56:59;;;;;;;75.80;15.60;;;;;;;;;;5093778;28;20504;-70
2022/02/03 07:59:27;;;;;;;74.03;14.70;;;;;;;;;;5093318;28;20447;-70
2022/02/03 08:01:54;;;;;;;71.03;13.10;;;;;;;;;;5093863;28;20451;-70
2022/02/03 08:04:27;;;;;;;71.00;13.40;;;;;;;;;;5093231;28;20474;-70
2022/02/03 08:06:54;;;;;;;70.83;13.43;;;;;;;;;;5073219;28;20440;-70
2022/02/03 08:09:25;;;;;;;68.47;11.33;;;;;;;;;;5071914;28;20483;-70
2022/02/03 08:11:54;;;;;;;67.57;11.63;;;;;;;;;;5073025;28;20456;-70
2022/02/03 08:14:26;;;;;;;68.67;10.73;;;;;;;;;;5073274;28;20563;-70
2022/02/03 08:17:00;;;;;;;67.80;10.93;;;;;;;;;;5073343;28;20455;-68
2022/02/03 08:19:33;;;;;;;68.73;11.57;;;;;;;;;;5072968;28;20458;-70
2022/02/03 08:22:04;;;;;;;73.77;11.97;;;;;;;;;;5073034;28;20451;-70
2022/02/03 08:24:41;;;;;;;74.30;12.70;;;;;;;;;;5072523;28;20897;-70
2022/02/03 08:27:34;;;;;;;73.13;13.43;;;;;;;;;;5072831;28;20456;-70
2022/02/03 08:30:21;;;;;;;72.27;12.70;;;;;;;;;;5072556;28;20517;-70
2022/02/03 08:32:55;;;;;;;69.53;11.83;;;;;;;;;;5072520;28;20476;-70
2022/02/03 08:35:33;;;;;;;72.53;12.90;;;;;;;;;;5072475;28;20976;-70
2022/02/03 08:38:07;;;;;;;70.83;12.50;;;;;;;;;;5090493;28;20892;-69
2022/02/03 08:40:44;;;;;;;75.97;13.30;;;;;;;;;;5092947;28;20454;-70
2022/02/03 08:43:11;;;;;;;77.87;15.13;;;;;;;;;;5092557;28;20545;-70
2022/02/03 08:45:38;;;;;;;72.57;13.47;;;;;;;;;;5092662;28;20497;-69
2022/02/03 08:48:07;;;;;;;69.17;11.93;;;;;;;;;;5092665;28;20533;-69
2022/02/03 08:50:35;;;;;;;70.80;12.53;;;;;;;;;;5092984;28;20472;-70
2022/02/03 08:53:07;;;;;;;70.03;12.63;;;;;;;;;;5092596;28;20474;-69
2022/02/03 08:55:42;;;;;;;67.90;11.67;;;;;;;;;;5092494;28;21014;-70
2022/02/03 08:58:39;;;;;;;73.47;12.77;;;;;;;;;;5092604;28;20450;-70
2022/02/03 09:56:39;;;;;;;63.90;8.60;;;;;;;;;;5069459;28;21102;-69
2022/02/03 09:59:10;;;;;;;65.27;8.23;;;;;;;;;;5071500;28;20495;-70
2022/02/03 10:01:43;;;;;;;61.77;6.30;;;;;;;;;;5071779;28;20823;-69
2022/02/03 10:04:14;;;;;;;61.50;6.57;;;;;;;;;;5071474;28;20566;-70
2022/02/03 10:06:52;;;;;;;62.47;7.13;;;;;;;;;;5071448;28;20494;-68
2022/02/03 10:09:34;;;;;;;61.07;5.40;;;;;;;;;;5070128;28;20976;-69
2022/02/03 10:12:03;;;;;;;61.07;5.83;;;;;;;;;;5071474;28;20526;-68
2022/02/03 10:14:34;;;;;;;60.30;4.40;;;;;;;;;;5071299;28;20469;-70
2022/02/03 10:17:02;;;;;;;60.40;4.33;;;;;;;;;;5071581;28;20442;-69
2022/02/03 10:19:34;;;;;;;59.90;4.33;;;;;;;;;;5071361;28;20475;-69
2022/02/03 10:22:02;;;;;;;60.17;4.50;;;;;;;;;;5071774;28;20455;-69
2022/02/03 10:24:33;;;;;;;59.27;3.70;;;;;;;;;;5071184;28;20476;-70
2022/02/03 10:27:02;;;;;;;59.77;3.80;;;;;;;;;;5071261;28;20518;-70
2022/02/03 10:29:35;;;;;;;58.87;3.87;;;;;;;;;;5070919;28;20530;-70
2022/02/03 10:32:02;;;;;;;59.00;3.97;;;;;;;;;;5073766;28;20455;-70
2022/02/03 10:34:32;;;;;;;60.90;4.03;;;;;;;;;;5074994;28;20521;-70
2022/02/03 10:37:08;;;;;;;58.80;4.00;;;;;;;;;;5074958;28;20498;-69
2022/02/03 10:51:13;;;;;;;58.90;3.97;;;;;;;;;;5075169;28;20522;-70
2022/02/03 10:54:08;;;;;;;58.87;3.63;;;;;;;;;;5074509;28;20472;-70
2022/02/03 11:00:00;;;;;;;59.43;3.40;;;;;;;;;;5049400;28;20439;-71
2022/02/03 11:02:41;;;;;;;59.10;4.10;;;;;;;;;;5074258;28;20967;-70
2022/02/03 11:05:38;;;;;;;59.67;4.40;;;;;;;;;;5074697;28;20500;-70
2022/02/03 11:08:13;;;;;;;58.47;3.20;;;;;;;;;;5074072;28;20451;-70
2022/02/03 11:10:43;;;;;;;58.77;3.53;;;;;;;;;;5074339;28;20447;-71
2022/02/03 11:13:11;;;;;;;59.37;3.80;;;;;;;;;;5084860;28;20561;-70
2022/02/03 11:15:41;;;;;;;60.27;3.60;;;;;;;;;;5094661;28;20449;-70
2022/02/03 11:18:09;;;;;;;58.87;3.57;;;;;;;;;;5094168;28;20451;-70
2022/02/03 11:20:39;;;;;;;59.20;3.87;;;;;;;;;;5094175;28;20458;-70
2022/02/03 11:23:29;;;;;;;58.40;3.27;;;;;;;;;;5094214;28;20525;-70
2022/02/03 11:26:09;;;;;;;58.87;4.00;;;;;;;;;;5094458;28;20483;-70
2022/02/03 11:28:57;;;;;;;61.37;4.50;;;;;;;;;;5094085;28;20450;-70
2022/02/03 11:34:59;;;;;;;60.10;4.17;;;;;;;;;;5093889;28;20447;-70
2022/02/03 11:40:28;;;;;;;59.40;3.50;;;;;;;;;;5094027;28;20422;-70
2022/02/03 11:46:35;;;;;;;60.20;4.60;;;;;;;;;;5049188;28;20481;-70
2022/02/03 11:49:21;;;;;;;60.23;4.20;;;;;;;;;;5050844;28;20460;-70
2022/02/03 11:55:17;;;;;;;60.10;3.80;;;;;;;;;;5051008;28;20440;-70
2022/02/03 11:58:11;;;;;;;60.20;4.20;;;;;;;;;;5050794;28;21011;-70
2022/02/03 12:03:58;;;;;;;59.50;4.10;;;;;;;;;;5040510;28;20544;-70
2022/02/03 12:17:54;;;;;;;61.40;4.30;;;;;;;;;;5059985;28;20447;-70
2022/02/03 12:20:39;;;;;;;58.63;3.80;;;;;;;;;;5073118;28;20850;-70
2022/02/03 12:23:33;;;;;;;59.47;3.83;;;;;;;;;;5072904;28;20467;-71
2022/02/03 12:26:06;;;;;;;59.17;4.40;;;;;;;;;;5072544;28;20491;-71
2022/02/03 12:28:46;;;;;;;60.30;4.50;;;;;;;;;;5072793;28;20443;-70
2022/02/03 12:39:24;;;;;;;66.17;4.47;;;;;;;;;;5070354;28;20570;-71
2022/02/03 12:42:05;;;;;;;59.17;4.13;;;;;;;;;;5072657;28;20458;-72
2022/02/03 12:44:36;;;;;;;58.73;3.90;;;;;;;;;;5072127;28;21015;-70
2022/02/03 12:47:05;;;;;;;59.50;4.07;;;;;;;;;;5072510;28;20471;-70
2022/02/03 12:49:33;;;;;;;58.97;4.10;;;;;;;;;;5072188;28;20451;-70
2022/02/03 12:52:00;;;;;;;59.60;3.80;;;;;;;;;;5077325;28;20483;-70
2022/02/03 12:54:33;;;;;;;59.23;4.20;;;;;;;;;;5091898;28;20840;-70
2022/02/03 12:57:01;;;;;;;59.47;3.83;;;;;;;;;;5092620;28;20445;-71
2022/02/03 12:59:29;;;;;;;62.40;3.60;;;;;;;;;;5073215;28;20971;-71
2022/02/03 13:01:56;;;;;;;59.07;3.87;;;;;;;;;;5072874;28;20447;-69
2022/02/03 13:04:23;;;;;;;61.50;4.10;;;;;;;;;;5072514;28;20563;-69
2022/02/03 13:07:01;;;;;;;59.80;3.80;;;;;;;;;;5072052;28;20490;-69
2022/02/03 13:09:38;;;;;;;58.67;3.50;;;;;;;;;;5071848;28;20940;-69
2022/02/03 13:12:14;;;;;;;60.40;4.30;;;;;;;;;;5071997;28;20428;-69
2022/02/03 13:14:49;;;;;;;58.90;3.67;;;;;;;;;;5072031;28;20471;-70
2022/02/03 13:17:21;;;;;;;59.53;3.80;;;;;;;;;;5071834;28;20573;-69
2022/02/03 13:19:55;;;;;;;58.47;3.37;;;;;;;;;;5071950;28;20448;-70
2022/02/03 13:22:31;;;;;;;60.50;3.70;;;;;;;;;;5071727;28;20584;-70
2022/02/03 13:25:09;;;;;;;58.90;3.17;;;;;;;;;;5072121;28;20506;-70
2022/02/03 13:27:45;;;;;;;59.00;3.40;;;;;;;;;;5071440;28;20487;-70
2022/02/03 13:30:37;;;;;;;59.60;3.47;;;;;;;;;;5081131;28;20485;-70
2022/02/03 13:33:05;;;;;;;58.90;2.97;;;;;;;;;;5092117;28;20879;-71
2022/02/03 13:35:44;;;;;;;58.57;3.17;;;;;;;;;;5092181;28;20854;-71
2022/02/03 13:38:21;;;;;;;59.07;3.17;;;;;;;;;;5091590;28;20974;-70
2022/02/03 13:40:51;;;;;;;58.27;3.30;;;;;;;;;;5092016;28;20499;-71
2022/02/03 13:43:25;;;;;;;62.10;5.10;;;;;;;;;;5091585;28;20482;-71
2022/02/03 13:45:53;;;;;;;59.10;3.67;;;;;;;;;;5091971;28;20980;-72
2022/02/03 13:48:21;;;;;;;59.17;3.40;;;;;;;;;;5091685;28;20454;-70
2022/02/03 13:50:54;;;;;;;58.60;3.33;;;;;;;;;;5091951;28;20526;-71
2022/02/03 13:53:29;;;;;;;58.60;3.33;;;;;;;;;;5091811;28;20467;-71
2022/02/03 14:15:38;;;;;;;59.20;3.63;;;;;;;;;;5095707;28;20438;-71
2022/02/03 14:18:14;;;;;;;63.07;4.97;;;;;;;;;;5095293;28;20451;-71
2022/02/03 14:20:44;;;;;;;63.40;6.67;;;;;;;;;;5095382;28;20450;-71
2022/02/03 14:28:54;;;;;;;58.80;3.67;;;;;;;;;;5094992;28;20441;-71
2022/02/03 14:31:21;;;;;;;62.53;4.00;;;;;;;;;;5095737;28;20507;-71
2022/02/03 14:33:48;;;;;;;60.60;4.63;;;;;;;;;;5080038;28;20503;-71
2022/02/03 14:36:19;;;;;;;63.03;5.37;;;;;;;;;;5075440;28;20817;-70
2022/02/03 14:38:53;;;;;;;59.10;3.97;;;;;;;;;;5074769;28;20964;-71
2022/02/03 14:41:25;;;;;;;59.50;3.87;;;;;;;;;;5075103;28;20450;-71
2022/02/03 14:43:57;;;;;;;58.60;3.67;;;;;;;;;;5074841;28;20472;-70
2022/02/03 14:46:26;;;;;;;58.87;3.83;;;;;;;;;;5074950;28;20578;-70
2022/02/03 14:48:53;;;;;;;60.60;3.63;;;;;;;;;;5074701;28;20479;-71
2022/02/03 14:51:25;;;;;;;60.57;4.00;;;;;;;;;;5074928;28;20535;-71
2022/02/03 14:53:56;;;;;;;59.00;3.43;;;;;;;;;;5074505;28;20478;-71
2022/02/03 14:59:09;;;;;;;59.27;3.83;;;;;;;;;;5074549;28;20600;-71
2022/02/03 15:01:39;;;;;;;59.30;3.60;;;;;;;;;;5074538;28;20456;-71
2022/02/03 15:04:09;;;;;;;59.97;3.97;;;;;;;;;;5076978;28;20477;-71
2022/02/03 15:06:39;;;;;;;60.50;3.63;;;;;;;;;;5094510;28;20478;-71
2022/02/03 15:09:20;;;;;;;61.77;3.97;;;;;;;;;;5094601;28;20455;-72
2022/02/03 15:12:02;;;;;;;59.57;3.67;;;;;;;;;;5094774;28;20457;-71
2022/02/03 15:14:29;;;;;;;63.17;4.57;;;;;;;;;;5094443;28;20566;-71
2022/02/03 15:16:58;;;;;;;76.87;8.03;;;;;;;;;;5093839;28;20526;-70
2022/02/03 15:19:25;;;;;;;62.37;5.43;;;;;;;;;;5094642;28;20446;-71
2022/02/03 15:21:52;;;;;;;61.60;5.43;;;;;;;;;;5094415;28;20447;-70
2022/02/03 15:24:19;;;;;;;60.27;4.27;;;;;;;;;;5094188;28;20554;-71
2022/02/03 15:26:47;;;;;;;62.57;5.63;;;;;;;;;;5094283;28;20574;-71
2022/02/03 15:29:14;;;;;;;62.23;5.30;;;;;;;;;;5094046;28;20454;-71
2022/02/03 15:31:42;;;;;;;60.30;4.30;;;;;;;;;;5094094;28;20507;-70
2022/02/03 15:34:16;;;;;;;64.10;4.90;;;;;;;;;;5094078;28;20466;-71
2022/02/03 15:36:48;;;;;;;61.67;4.80;;;;;;;;;;5076155;28;20452;-70
2022/02/03 15:39:20;;;;;;;59.40;4.07;;;;;;;;;;5076639;28;20456;-70
2022/02/03 15:41:49;;;;;;;62.00;4.10;;;;;;;;;;5073795;28;20531;-71
2022/02/03 15:44:16;;;;;;;59.83;3.90;;;;;;;;;;5073796;28;20486;-71
2022/02/03 15:46:57;;;;;;;60.47;4.50;;;;;;;;;;5073777;28;20890;-71
2022/02/03 15:49:54;;;;;;;59.60;4.70;;;;;;;;;;5073650;28;20447;-70
2022/02/03 16:03:27;;;;;;;70.07;8.83;;;;;;;;;;5067683;28;20452;-70
2022/02/03 16:17:05;;;;;;;64.70;6.10;;;;;;;;;;5089518;27;20567;-69
2022/02/03 16:19:40;;;;;;;65.20;6.90;;;;;;;;;;5088953;28;20458;-69
2022/02/03 16:22:19;;;;;;;63.90;6.03;;;;;;;;;;5089380;28;20489;-69
2022/02/03 16:24:51;;;;;;;62.13;5.60;;;;;;;;;;5089177;28;21018;-69
2022/02/03 16:41:19;;;;;;;64.57;6.67;;;;;;;;;;5089066;28;20418;-71
2022/02/03 16:52:23;;;;;;;64.00;7.57;;;;;;;;;;5088709;28;20434;-70
2022/02/03 16:54:52;;;;;;;65.90;8.63;;;;;;;;;;5088381;28;20994;-71
2022/02/03 16:57:22;;;;;;;63.37;6.57;;;;;;;;;;5088383;28;20447;-70
2022/02/03 16:59:55;;;;;;;60.57;5.03;;;;;;;;;;5088940;28;20454;-70
2022/02/03 17:02:24;;;;;;;65.37;7.53;;;;;;;;;;5088908;28;20542;-70
2022/02/03 17:04:52;;;;;;;68.37;9.20;;;;;;;;;;5088402;28;20538;-70
2022/02/03 17:07:20;;;;;;;72.43;11.40;;;;;;;;;;5088135;28;20451;-71
2022/02/03 17:09:49;;;;;;;74.63;12.90;;;;;;;;;;5074427;28;20451;-70
2022/02/03 17:12:16;;;;;;;85.93;23.60;;;;;;;;;;5068040;28;20448;-70
2022/02/03 17:14:44;;;;;;;74.00;14.00;;;;;;;;;;5067901;28;20847;-71
2022/02/03 17:17:11;;;;;;;76.77;14.20;;;;;;;;;;5067736;28;20511;-70
2022/02/03 17:19:39;;;;;;;64.10;6.70;;;;;;;;;;5067759;28;20455;-70
2022/02/03 17:22:09;;;;;;;69.03;11.43;;;;;;;;;;5068021;28;20867;-70
2022/02/03 17:24:39;;;;;;;82.40;21.50;;;;;;;;;;5067884;28;20475;-71
2022/02/03 17:27:11;;;;;;;77.30;17.60;;;;;;;;;;5061871;28;20484;-71
2022/02/03 17:29:50;;;;;;;72.10;14.93;;;;;;;;;;5054510;28;20460;-70
2022/02/03 17:44:49;;;;;;;61.53;6.63;;;;;;;;;;5054343;28;20453;-70
2022/02/03 18:11:05;;;;;;;63.77;7.20;;;;;;;;;;5052144;28;20835;-71
2022/02/03 18:30:27;;;;;;;67.70;7.40;;;;;;;;;;5028867;28;20434;-70
2022/02/03 18:33:25;;;;;;;65.90;7.40;;;;;;;;;;5053114;28;20472;-70
2022/02/03 18:36:12;;;;;;;64.37;7.97;;;;;;;;;;5053493;28;20546;-71
2022/02/03 18:52:27;;;;;;;62.10;7.17;;;;;;;;;;5053137;28;20532;-71
2022/02/03 18:55:14;;;;;;;64.70;8.73;;;;;;;;;;5053279;28;20453;-70
2022/02/03 18:57:49;;;;;;;121.40;41.70;;;;;;;;;;5065643;28;20476;-70
2022/02/03 19:00:41;;;;;;;76.97;16.70;;;;;;;;;;5071358;28;20445;-70
2022/02/03 19:28:34;;;;;;;66.53;8.60;;;;;;;;;;5072078;28;20420;-71
2022/02/03 20:02:04;;;;;;;74.18;12.30;;;;;;;;;;5028759;28;20468;-71
2022/02/03 20:07:21;;;;;;;196.63;64.03;;;;;;;;;;5022392;28;21082;-70
2022/02/03 20:12:39;;;;;;;114.73;31.67;;;;;;;;;;5018973;28;20438;-72
2022/02/03 20:15:06;;;;;;;80.50;15.90;;;;;;;;;;5029309;28;20500;-72
2022/02/03 20:17:34;;;;;;;76.70;13.33;;;;;;;;;;5029040;28;20512;-71
2022/02/03 20:20:01;;;;;;;70.97;11.30;;;;;;;;;;5029346;28;20835;-71
2022/02/03 20:22:33;;;;;;;69.27;11.20;;;;;;;;;;5029143;28;20452;-70
2022/02/03 20:25:02;;;;;;;70.07;12.20;;;;;;;;;;5029148;28;21009;-70
2022/02/03 20:27:29;;;;;;;72.80;13.00;;;;;;;;;;5029118;28;20495;-71
2022/02/03 20:29:56;;;;;;;72.70;12.63;;;;;;;;;;5053806;28;20462;-69
2022/02/03 20:32:24;;;;;;;69.00;10.93;;;;;;;;;;5071425;28;20967;-70
2022/02/03 20:34:52;;;;;;;68.70;11.00;;;;;;;;;;5071355;28;20447;-69
2022/02/03 20:37:19;;;;;;;70.07;11.40;;;;;;;;;;5071235;28;20490;-71
2022/02/03 20:39:47;;;;;;;70.37;11.60;;;;;;;;;;5071268;28;20535;-73
2022/02/03 20:42:16;;;;;;;68.80;11.07;;;;;;;;;;5071548;28;20850;-72
2022/02/03 20:44:43;;;;;;;68.67;10.80;;;;;;;;;;5071371;28;20991;-71
2022/02/03 20:47:11;;;;;;;68.80;11.27;;;;;;;;;;5071187;28;20444;-73
2022/02/03 20:49:38;;;;;;;74.45;12.50;;;;;;;;;;5070475;28;20481;-66
2022/02/03 20:52:05;;;;;;;67.80;10.60;;;;;;;;;;5068742;28;20300;-68
2022/02/03 20:54:32;;;;;;;69.43;10.53;;;;;;;;;;5071388;28;20554;-68
2022/02/03 20:57:01;;;;;;;68.80;11.10;;;;;;;;;;5071300;28;20486;-68
2022/02/03 20:59:29;;;;;;;67.50;10.50;;;;;;;;;;5070982;28;20454;-67
2022/02/03 21:02:00;;;;;;;68.10;10.10;;;;;;;;;;5071925;28;20454;-68
2022/02/03 21:04:38;;;;;;;67.73;9.37;;;;;;;;;;5074852;28;20490;-68
2022/02/03 21:07:09;;;;;;;66.70;10.17;;;;;;;;;;5074732;28;20902;-68
2022/02/03 21:09:36;;;;;;;67.83;9.87;;;;;;;;;;5074770;28;20452;-65
2022/02/03 21:12:05;;;;;;;67.50;10.07;;;;;;;;;;5074965;28;20480;-66
2022/02/03 21:14:32;;;;;;;64.80;9.83;;;;;;;;;;5074583;28;20474;-67
2022/02/03 21:17:00;;;;;;;69.07;10.80;;;;;;;;;;5074710;28;20487;-67
2022/02/03 21:19:27;;;;;;;67.40;9.60;;;;;;;;;;5074200;28;20443;-67
2022/02/03 21:21:55;;;;;;;66.77;9.67;;;;;;;;;;5074659;28;20463;-67
2022/02/03 21:24:22;;;;;;;69.73;10.80;;;;;;;;;;5058605;28;20472;-67
2022/02/03 21:26:52;;;;;;;68.27;9.97;;;;;;;;;;5054667;28;20819;-68
2022/02/03 21:29:21;;;;;;;70.03;11.13;;;;;;;;;;5054166;28;20488;-69
2022/02/03 21:31:48;;;;;;;68.60;10.20;;;;;;;;;;5054248;28;20937;-66
2022/02/03 21:34:20;;;;;;;67.80;9.67;;;;;;;;;;5054224;28;20483;-68
2022/02/03 21:36:53;;;;;;;69.00;10.17;;;;;;;;;;5054440;28;20484;-67
2022/02/03 21:39:20;;;;;;;70.07;11.90;;;;;;;;;;5054151;28;20464;-68
2022/02/03 21:41:48;;;;;;;66.13;9.50;;;;;;;;;;5054323;28;20450;-66
2022/02/03 21:44:15;;;;;;;66.70;9.60;;;;;;;;;;5053978;28;20929;-68
2022/02/03 21:46:44;;;;;;;67.27;9.73;;;;;;;;;;5054411;28;20456;-68
2022/02/03 21:49:11;;;;;;;67.73;9.80;;;;;;;;;;5053971;28;20448;-73
2022/02/03 21:51:42;;;;;;;66.43;9.07;;;;;;;;;;5054065;28;20472;-68
2022/02/03 21:54:11;;;;;;;65.80;9.00;;;;;;;;;;5053502;28;20561;-67
2022/02/03 21:56:38;;;;;;;66.40;9.60;;;;;;;;;;5073047;28;20476;-68
2022/02/03 21:59:08;;;;;;;69.97;9.80;;;;;;;;;;5073547;28;20538;-68
2022/02/03 22:01:37;;;;;;;67.70;10.43;;;;;;;;;;5073828;28;20455;-68
2022/02/03 22:04:06;;;;;;;67.67;9.77;;;;;;;;;;5073689;28;20476;-68
2022/02/03 22:06:33;;;;;;;68.30;10.90;;;;;;;;;;5073841;28;20826;-68
2022/02/03 22:09:00;;;;;;;71.43;10.33;;;;;;;;;;5073435;28;20450;-68
2022/02/03 22:11:27;;;;;;;67.17;10.33;;;;;;;;;;5073475;28;20944;-67
2022/02/03 22:13:54;;;;;;;68.20;9.63;;;;;;;;;;5073607;28;20460;-68
2022/02/03 22:16:25;;;;;;;68.07;9.87;;;;;;;;;;5073541;28;20517;-68
2022/02/03 22:18:52;;;;;;;70.25;10.48;;;;;;;;;;5073485;28;20551;-68
2022/02/03 22:21:29;;;;;;;67.10;10.57;;;;;;;;;;5073497;28;20209;-68
2022/02/03 22:24:06;;;;;;;66.57;10.10;;;;;;;;;;5073273;28;20889;-68
2022/02/03 22:26:55;;;;;;;66.33;10.17;;;;;;;;;;5064738;28;20453;-68
2022/02/03 22:46:11;;;;;;;67.77;10.37;;;;;;;;;;5050995;28;20464;-69
2022/02/03 22:48:38;;;;;;;67.90;10.17;;;;;;;;;;5052745;28;20866;-69
2022/02/03 22:51:06;;;;;;;69.40;10.50;;;;;;;;;;5052851;28;21081;-69
2022/02/03 22:53:36;;;;;;;64.90;9.03;;;;;;;;;;5052880;28;20481;-69
2022/02/03 22:56:04;;;;;;;69.97;11.03;;;;;;;;;;5052924;28;20826;-66
2022/02/03 23:01:33;;;;;;;67.95;10.48;;;;;;;;;;5030346;28;20668;-67
2022/02/03 23:04:00;;;;;;;68.10;10.90;;;;;;;;;;5030307;28;20227;-67
2022/02/03 23:06:27;;;;;;;69.37;10.97;;;;;;;;;;5030248;28;20883;-66
2022/02/03 23:09:02;;;;;;;70.10;11.33;;;;;;;;;;5030020;28;20450;-67
2022/02/03 23:14:18;;;;;;;69.40;10.27;;;;;;;;;;5029051;28;20462;-66
2022/02/03 23:17:02;;;;;;;66.47;10.27;;;;;;;;;;5030056;28;20575;-67
2022/02/03 23:22:16;;;;;;;73.03;10.03;;;;;;;;;;5026420;28;20528;-65
2022/02/03 23:24:46;;;;;;;70.17;10.87;;;;;;;;;;5029387;28;20501;-67
2022/02/03 23:29:58;;;;;;;67.43;10.30;;;;;;;;;;5026305;28;20477;-67
2022/02/03 23:32:26;;;;;;;69.00;10.70;;;;;;;;;;5050649;28;20452;-68
2022/02/03 23:35:01;;;;;;;69.97;11.57;;;;;;;;;;5071895;28;20439;-67